Pisgah, Ohio
Current Conditions -  °F | °C
As of 8:53 PM on Monday 22 Dec 2014 (Local Time) from KHAO Reporting Station
Broken Clouds Broken Clouds  
Wind Chill: 43°   Ceiling: 5500
Heat Index: 45°   Visibility: 10mi
Dew Point: 37°   Wind: 5mph
Humidity: 74%   Direction: 100°E
Pressure: 29.78"   Gusts: NA
Location:  39.3413°N, 84.4053°W
Report Text: KHAO 230153Z AUTO 10004KT 10SM BKN055 BKN120 07/03 A2978 RMK AO2 SLP088 T00720028
Loading
Personal Weather Stations






























Interactive Weather Map New forecast layout! Learn more

10-Day Weather Forecast

Advertisements
Track Severe Weather on mobile